TimeCST,TemperatureF,Dew PointF,Humidity,Sea Level PressureIn,VisibilityMPH,Wind Direction,Wind SpeedMPH,Gust SpeedMPH,PrecipitationIn,Events,Conditions,WindDirDegrees,DateUTC
12:15 AM,15.8,10.6,80,30.37,10.0,Calm,Calm,-,N/A,,Clear,0,2013-01-14 06:15:00
12:35 AM,14.7,10.4,83,30.38,10.0,Calm,Calm,-,N/A,,Clear,0,2013-01-14 06:35:00
12:55 AM,13.8,9.9,84,30.38,10.0,Calm,Calm,-,N/A,,Clear,0,2013-01-14 06:55:00
1:15 AM,13.6,9.9,85,30.40,10.0,Calm,Calm,-,N/A,,Clear,0,2013-01-14 07:15:00
1:35 AM,14.0,10.4,86,30.41,10.0,Calm,Calm,-,N/A,,Clear,0,2013-01-14 07:35:00
1:55 AM,14.0,10.4,86,30.42,10.0,Calm,Calm,-,N/A,,Clear,0,2013-01-14 07:55:00
2:15 AM,14.4,10.2,84,30.43,10.0,Calm,Calm,-,N/A,,Clear,0,2013-01-14 08:15:00
2:35 AM,14.4,10.2,84,30.44,10.0,Calm,Calm,-,N/A,,Clear,0,2013-01-14 08:35:00
2:55 AM,13.5,9.3,84,30.44,10.0,Calm,Calm,-,N/A,,Clear,0,2013-01-14 08:55:00
3:35 AM,12.0,9.1,88,30.44,10.0,Calm,Calm,-,N/A,,Clear,0,2013-01-14 09:35:00
4:15 AM,11.7,9.3,90,30.43,10.0,Calm,Calm,-,N/A,,Clear,0,2013-01-14 10:15:00
4:35 AM,12.6,10.6,92,30.43,10.0,Calm,Calm,-,N/A,,Clear,0,2013-01-14 10:35:00
4:55 AM,13.1,11.3,93,30.42,10.0,Calm,Calm,-,N/A,,Clear,0,2013-01-14 10:55:00
5:15 AM,12.9,11.3,93,30.41,10.0,Calm,Calm,-,N/A,,Clear,0,2013-01-14 11:15:00
5:55 AM,11.1,9.5,93,30.42,10.0,NW,3.5,-,N/A,,Clear,320,2013-01-14 11:55:00
6:15 AM,11.8,10.4,94,30.42,10.0,NNW,4.6,-,N/A,,Clear,330,2013-01-14 12:15:00
6:35 AM,11.8,10.0,92,30.41,10.0,NNW,3.5,-,N/A,,Clear,340,2013-01-14 12:35:00
6:55 AM,11.5,9.0,90,30.42,10.0,Calm,Calm,-,N/A,,Clear,0,2013-01-14 12:55:00
7:15 AM,11.5,8.6,88,30.43,10.0,Calm,Calm,-,N/A,,Clear,0,2013-01-14 13:15:00
7:35 AM,11.7,8.4,87,30.44,10.0,Calm,Calm,-,N/A,,Clear,0,2013-01-14 13:35:00
7:55 AM,11.8,8.1,85,30.44,10.0,Calm,Calm,-,N/A,,Clear,0,2013-01-14 13:55:00
8:15 AM,12.4,8.8,85,30.44,10.0,Calm,Calm,-,N/A,,Clear,0,2013-01-14 14:15:00
8:35 AM,13.6,9.3,83,30.48,10.0,Calm,Calm,-,N/A,,Clear,0,2013-01-14 14:35:00
8:55 AM,14.5,9.9,82,30.50,10.0,Calm,Calm,-,N/A,,Clear,0,2013-01-14 14:55:00
9:15 AM,15.4,10.2,80,30.50,10.0,NW,3.5,-,N/A,,Clear,320,2013-01-14 15:15:00
9:35 AM,16.3,10.9,79,30.49,10.0,NNW,3.5,-,N/A,,Clear,330,2013-01-14 15:35:00
9:55 AM,17.1,10.9,77,30.50,10.0,NNW,4.6,-,N/A,,Clear,330,2013-01-14 15:55:00
10:15 AM,17.6,10.9,75,30.48,10.0,North,4.6,-,N/A,,Clear,350,2013-01-14 16:15:00
10:35 AM,19.8,11.7,71,30.48,10.0,North,3.5,-,N/A,,Clear,360,2013-01-14 16:35:00
10:55 AM,21.7,11.3,64,30.49,10.0,North,3.5,-,N/A,,Clear,10,2013-01-14 16:55:00
11:15 AM,22.6,11.1,61,30.48,10.0,NNE,3.5,-,N/A,,Clear,20,2013-01-14 17:15:00
11:35 AM,23.2,9.5,56,30.48,10.0,NNW,3.5,-,N/A,,Clear,340,2013-01-14 17:35:00
11:55 AM,23.7,9.0,53,30.47,10.0,Calm,Calm,-,N/A,,Clear,0,2013-01-14 17:55:00
12:15 PM,24.4,8.8,51,30.46,10.0,North,3.5,-,N/A,,Clear,360,2013-01-14 18:15:00
12:35 PM,25.0,9.0,51,30.46,10.0,Calm,Calm,-,N/A,,Clear,0,2013-01-14 18:35:00
1:15 PM,26.1,7.3,45,30.43,10.0,Calm,Calm,-,N/A,,Clear,0,2013-01-14 19:15:00
1:35 PM,25.5,7.0,45,30.43,10.0,Calm,Calm,-,N/A,,Clear,0,2013-01-14 19:35:00
1:55 PM,27.0,7.5,44,30.42,10.0,Calm,Calm,-,N/A,,Clear,0,2013-01-14 19:55:00
2:15 PM,27.3,6.8,42,30.42,10.0,Calm,Calm,-,N/A,,Clear,0,2013-01-14 20:15:00
2:35 PM,27.9,5.9,39,30.42,10.0,Calm,Calm,-,N/A,,Clear,0,2013-01-14 20:35:00
2:55 PM,27.9,7.0,41,30.42,10.0,NNW,3.5,-,N/A,,Clear,340,2013-01-14 20:55:00
3:15 PM,28.4,7.0,40,30.42,10.0,Calm,Calm,-,N/A,,Clear,0,2013-01-14 21:15:00
3:35 PM,28.4,7.5,41,30.42,10.0,North,3.5,-,N/A,,Clear,350,2013-01-14 21:35:00
3:55 PM,28.2,7.9,42,30.41,10.0,Calm,Calm,-,N/A,,Clear,0,2013-01-14 21:55:00
4:15 PM,28.2,8.1,43,30.41,10.0,Calm,Calm,-,N/A,,Clear,0,2013-01-14 22:15:00
4:35 PM,28.6,8.8,43,30.41,10.0,Calm,Calm,-,N/A,,Clear,0,2013-01-14 22:35:00
4:55 PM,28.4,9.1,44,30.41,10.0,Calm,Calm,-,N/A,,Clear,0,2013-01-14 22:55:00
5:15 PM,27.7,10.0,48,30.41,10.0,Calm,Calm,-,N/A,,Clear,0,2013-01-14 23:15:00
5:35 PM,26.1,9.9,50,30.42,10.0,Calm,Calm,-,N/A,,Clear,0,2013-01-14 23:35:00
5:55 PM,25.3,8.6,49,30.41,10.0,ENE,3.5,-,N/A,,Clear,70,2013-01-14 23:55:00
6:15 PM,24.8,7.5,48,30.41,10.0,ENE,4.6,-,N/A,,Clear,70,2013-01-15 00:15:00
6:35 PM,23.7,7.7,51,30.41,10.0,ENE,5.8,-,N/A,,Clear,70,2013-01-15 00:35:00
6:55 PM,23.4,7.5,51,30.41,10.0,ENE,3.5,-,N/A,,Clear,60,2013-01-15 00:55:00
7:15 PM,22.8,7.7,52,30.41,10.0,NE,3.5,-,N/A,,Clear,40,2013-01-15 01:15:00
7:35 PM,22.1,8.1,55,30.41,10.0,ENE,3.5,-,N/A,,Clear,60,2013-01-15 01:35:00
7:55 PM,21.9,7.7,54,30.41,10.0,NE,4.6,-,N/A,,Clear,50,2013-01-15 01:55:00
8:15 PM,21.2,8.2,57,30.41,10.0,NE,3.5,-,N/A,,Clear,50,2013-01-15 02:15:00
8:35 PM,20.7,8.6,60,30.41,10.0,Calm,Calm,-,N/A,,Clear,0,2013-01-15 02:35:00
8:55 PM,19.6,9.0,63,30.41,10.0,Calm,Calm,-,N/A,,Clear,0,2013-01-15 02:55:00
9:15 PM,18.7,9.1,66,30.41,10.0,Calm,Calm,-,N/A,,Clear,0,2013-01-15 03:15:00
9:35 PM,18.5,9.3,67,30.42,10.0,Calm,Calm,-,N/A,,Clear,0,2013-01-15 03:35:00
9:55 PM,18.9,9.7,67,30.41,10.0,Calm,Calm,-,N/A,,Clear,0,2013-01-15 03:55:00
10:15 PM,17.8,9.9,71,30.41,10.0,Calm,Calm,-,N/A,,Clear,0,2013-01-15 04:15:00
10:35 PM,17.6,10.6,74,30.41,10.0,Calm,Calm,-,N/A,,Clear,0,2013-01-15 04:35:00
10:55 PM,16.9,10.6,76,30.41,10.0,Calm,Calm,-,N/A,,Clear,0,2013-01-15 04:55:00
11:15 PM,16.7,11.1,79,30.41,10.0,Calm,Calm,-,N/A,,Clear,0,2013-01-15 05:15:00
11:35 PM,16.7,12.4,83,30.41,10.0,Calm,Calm,-,N/A,,Clear,0,2013-01-15 05:35:00
11:55 PM,16.5,12.0,82,30.41,10.0,Calm,Calm,-,N/A,,Clear,0,2013-01-15 05:55:00